Time;durP1;ratioP1;P1;durP2;ratioP2;P2;SDS_P1;SDS_P2;PMS_P1;PMS_P2;Temp;Humidity;BMP_temperature;BMP_pressure;BME280_temperature;BME280_humidity;BME280_pressure;Samples;Min_cycle;Max_cycle;Signal;HPM_P1;HPM_P2
2023/12/03 00:02:21;;;;;;;10.52;7.15;;;;;;;16.29;47.40;101971.09;5027357;28;20426;-39
2023/12/03 00:04:51;;;;;;;10.13;6.85;;;;;;;16.26;47.26;101964.16;5024183;28;20050;-39
2023/12/03 00:07:22;;;;;;;14.90;7.40;;;;;;;16.25;47.25;101959.78;5025304;28;20060;-39
2023/12/03 00:09:49;;;;;;;9.77;6.90;;;;;;;16.23;47.13;101964.38;5028179;28;20054;-39
2023/12/03 00:12:16;;;;;;;10.30;6.97;;;;;;;16.22;46.60;101967.19;5026559;28;20052;-39
2023/12/03 00:14:42;;;;;;;10.40;7.63;;;;;;;16.20;46.81;101956.59;5029230;28;20061;-39
2023/12/03 00:17:09;;;;;;;9.43;6.63;;;;;;;16.17;47.77;101959.50;5025670;28;20049;-39
2023/12/03 00:19:36;;;;;;;9.23;7.10;;;;;;;16.16;47.56;101965.81;5035540;28;20427;-39
2023/12/03 00:22:02;;;;;;;9.38;7.20;;;;;;;16.15;47.05;101960.56;5029187;28;20112;-39
2023/12/03 00:24:29;;;;;;;14.13;7.00;;;;;;;16.13;46.86;101968.72;5024791;28;20168;-39
2023/12/03 00:26:56;;;;;;;9.45;6.53;;;;;;;16.12;47.87;101959.00;5033518;28;20530;-38
2023/12/03 00:29:23;;;;;;;8.73;5.97;;;;;;;16.11;46.70;101970.63;5031596;28;20053;-39
2023/12/03 00:31:49;;;;;;;9.90;6.68;;;;;;;16.09;47.06;101966.38;5028183;28;20092;-39
2023/12/03 00:34:16;;;;;;;8.85;6.57;;;;;;;16.09;46.84;101967.25;5031919;28;20045;-39
2023/12/03 00:36:42;;;;;;;8.43;6.22;;;;;;;16.08;47.07;101970.88;5032945;28;20049;-39
2023/12/03 00:39:09;;;;;;;9.20;6.40;;;;;;;16.05;46.68;101971.09;5031562;28;20059;-39
2023/12/03 00:41:36;;;;;;;9.90;7.25;;;;;;;16.04;47.76;101964.06;5038373;28;20057;-39
2023/12/03 00:44:02;;;;;;;8.40;6.28;;;;;;;16.02;47.42;101971.31;5034929;28;20053;-39
2023/12/03 00:46:29;;;;;;;9.00;5.80;;;;;;;15.96;46.77;101961.94;5032964;28;20131;-39
2023/12/03 00:48:56;;;;;;;8.88;6.40;;;;;;;15.92;46.63;101967.59;5032800;28;20048;-39
2023/12/03 00:51:23;;;;;;;9.77;6.57;;;;;;;15.85;48.00;101969.91;5032794;28;20078;-38
2023/12/03 00:53:49;;;;;;;9.25;6.60;;;;;;;15.88;47.67;101969.69;5036318;28;20049;-38
2023/12/03 00:56:16;;;;;;;7.95;6.03;;;;;;;15.91;46.92;101969.44;5025843;28;20052;-38
2023/12/03 00:58:43;;;;;;;9.18;6.75;;;;;;;15.94;47.37;101977.22;5027933;28;20133;-39
2023/12/03 01:01:09;;;;;;;9.73;6.65;;;;;;;15.96;46.86;101969.09;5029794;28;20061;-38
2023/12/03 01:03:36;;;;;;;9.98;6.60;;;;;;;16.00;47.94;101971.44;5029350;28;20045;-39
2023/12/03 01:06:02;;;;;;;8.65;6.55;;;;;;;16.06;47.82;101971.97;5029581;28;20052;-39
2023/12/03 01:08:29;;;;;;;8.93;6.00;;;;;;;16.11;46.75;101988.50;5031519;28;20471;-39
2023/12/03 01:10:56;;;;;;;7.75;5.95;;;;;;;16.15;47.92;101985.50;5031845;28;20069;-39
2023/12/03 01:13:22;;;;;;;8.52;6.35;;;;;;;16.20;47.51;101983.34;5032907;28;20132;-39
2023/12/03 01:15:49;;;;;;;8.77;6.22;;;;;;;16.25;47.82;101985.69;5027997;28;20452;-39
2023/12/03 01:18:16;;;;;;;8.77;6.65;;;;;;;16.28;47.54;101990.78;5027451;28;20050;-39
2023/12/03 01:20:43;;;;;;;7.05;5.72;;;;;;;16.32;47.80;101983.38;5034223;28;20049;-39
2023/12/03 01:23:09;;;;;;;8.13;5.85;;;;;;;16.32;46.71;101983.38;5028330;28;20042;-39
2023/12/03 01:25:36;;;;;;;8.40;6.18;;;;;;;16.31;47.31;101985.22;5031953;28;20042;-38
2023/12/03 01:28:02;;;;;;;8.05;6.28;;;;;;;16.29;47.44;101988.00;5029701;28;20175;-39
2023/12/03 01:30:29;;;;;;;9.27;6.07;;;;;;;16.27;47.21;101981.91;5027997;28;20053;-39
2023/12/03 01:32:56;;;;;;;7.78;5.80;;;;;;;16.26;46.71;101985.56;5024538;28;20767;-39
2023/12/03 01:35:23;;;;;;;7.78;5.97;;;;;;;16.25;47.19;101991.88;5027713;28;20068;-39
2023/12/03 01:37:49;;;;;;;8.95;6.25;;;;;;;16.24;46.94;101990.19;5026767;28;20374;-39
2023/12/03 01:40:16;;;;;;;7.90;6.32;;;;;;;16.25;47.43;101993.72;5030655;28;20114;-39
2023/12/03 01:42:42;;;;;;;9.45;5.78;;;;;;;16.23;47.04;102001.81;5028507;28;20147;-39
2023/12/03 01:45:09;;;;;;;8.25;6.07;;;;;;;16.23;47.38;101995.63;5028696;28;20415;-39
2023/12/03 01:47:36;;;;;;;9.02;6.50;;;;;;;16.21;47.68;101994.91;5028952;28;20049;-39
2023/12/03 01:50:06;;;;;;;8.38;6.15;;;;;;;16.19;47.38;102003.03;5022362;28;20053;-39
2023/12/03 01:52:36;;;;;;;8.40;6.30;;;;;;;16.17;47.48;102004.97;5024556;28;20049;-39
2023/12/03 01:55:03;;;;;;;7.35;5.60;;;;;;;16.16;47.66;102007.75;5026729;28;20396;-39
2023/12/03 01:57:30;;;;;;;8.80;5.90;;;;;;;16.15;46.99;102004.22;5030497;28;20081;-39
2023/12/03 01:59:57;;;;;;;7.75;5.88;;;;;;;16.14;47.08;102002.50;5024716;28;20136;-39
2023/12/03 02:02:24;;;;;;;7.78;6.30;;;;;;;16.13;47.03;102011.50;5024602;28;20085;-39
2023/12/03 02:04:51;;;;;;;7.20;5.68;;;;;;;16.12;47.48;102016.97;5028493;28;20134;-39
2023/12/03 02:07:18;;;;;;;8.13;5.90;;;;;;;16.12;47.38;102015.16;5030954;28;20155;-39
2023/12/03 02:09:45;;;;;;;7.28;6.05;;;;;;;16.12;47.69;102028.53;5029929;28;20044;-39
2023/12/03 02:12:12;;;;;;;7.20;5.97;;;;;;;16.10;47.78;102013.56;5026381;28;20057;-39
2023/12/03 02:14:40;;;;;;;7.65;5.55;;;;;;;16.11;47.43;102025.97;5030242;28;20107;-39
2023/12/03 02:17:07;;;;;;;7.72;5.47;;;;;;;16.10;47.34;102019.75;5029219;28;20075;-39
2023/12/03 02:19:33;;;;;;;7.90;5.95;;;;;;;16.12;47.28;102019.63;5031257;28;20100;-38
2023/12/03 02:22:00;;;;;;;8.70;5.97;;;;;;;16.13;48.15;102019.53;5032377;28;20049;-39
2023/12/03 02:24:26;;;;;;;9.27;6.22;;;;;;;16.16;47.66;102015.75;5028409;28;20313;-39
2023/12/03 02:26:53;;;;;;;8.48;6.10;;;;;;;16.20;47.79;102023.47;5029562;28;20042;-39
2023/12/03 02:29:20;;;;;;;7.70;6.20;;;;;;;16.24;47.34;102018.72;5029457;28;20092;-39
2023/12/03 02:31:46;;;;;;;8.45;6.00;;;;;;;16.28;47.54;102014.84;5025149;28;20077;-39
2023/12/03 02:34:13;;;;;;;8.60;6.00;;;;;;;16.32;47.46;102015.50;5024390;28;20049;-39
2023/12/03 02:36:40;;;;;;;6.70;5.47;;;;;;;16.35;46.53;102016.13;5024174;28;20049;-39
2023/12/03 02:39:07;;;;;;;8.00;5.88;;;;;;;16.36;47.41;102012.50;5023307;28;20045;-39
2023/12/03 02:41:33;;;;;;;7.88;5.80;;;;;;;16.37;47.27;102008.00;5029357;28;20053;-39
2023/12/03 02:44:00;;;;;;;7.10;5.75;;;;;;;16.35;47.64;102009.91;5028024;28;20056;-39
2023/12/03 02:46:27;;;;;;;7.22;5.75;;;;;;;16.34;46.90;102016.25;5025803;28;20057;-39
2023/12/03 02:48:53;;;;;;;9.80;6.53;;;;;;;16.32;46.94;102015.50;5028088;28;20057;-39
2023/12/03 02:51:20;;;;;;;7.15;5.68;;;;;;;16.31;47.71;102019.13;5031651;28;20054;-39
2023/12/03 02:53:48;;;;;;;9.30;6.70;;;;;;;16.29;47.10;102008.56;5029762;28;20052;-39
2023/12/03 02:56:15;;;;;;;7.72;5.90;;;;;;;16.28;46.89;102010.38;5032291;28;20264;-39
2023/12/03 02:58:41;;;;;;;9.45;6.18;;;;;;;16.26;47.45;102006.09;5031387;28;20056;-39
2023/12/03 03:01:08;;;;;;;7.65;5.82;;;;;;;16.25;47.06;102009.75;5030777;28;20049;-39
2023/12/03 03:03:35;;;;;;;8.15;6.88;;;;;;;16.22;47.10;102000.13;5026655;28;20483;-38
2023/12/03 03:06:02;;;;;;;8.70;6.60;;;;;;;16.20;47.52;102007.44;5029190;28;20068;-39
2023/12/03 03:08:28;;;;;;;9.48;6.07;;;;;;;16.18;47.41;102011.16;5025469;28;20140;-39
2023/12/03 03:10:55;;;;;;;8.07;6.30;;;;;;;16.16;47.58;102007.75;5023477;28;20135;-39
2023/12/03 03:13:22;;;;;;;7.60;6.00;;;;;;;16.15;47.68;102016.75;5025070;28;20116;-39
2023/12/03 03:15:48;;;;;;;9.23;7.05;;;;;;;16.13;46.86;102018.69;5027669;28;20119;-39
2023/12/03 03:18:15;;;;;;;8.60;6.03;;;;;;;16.11;47.07;102018.78;5028178;28;20317;-39
2023/12/03 03:20:42;;;;;;;9.82;6.70;;;;;;;16.10;46.50;102027.78;5027084;28;20050;-38
2023/12/03 03:23:09;;;;;;;8.07;5.97;;;;;;;16.07;46.58;102016.44;5029563;28;20516;-39
2023/12/03 03:25:35;;;;;;;9.60;7.20;;;;;;;16.04;46.76;102020.22;5025368;28;20112;-38
2023/12/03 03:28:02;;;;;;;8.13;6.38;;;;;;;16.03;46.33;102018.50;5026966;28;20132;-39
2023/12/03 03:30:28;;;;;;;7.95;6.50;;;;;;;16.04;46.74;102020.22;5023601;28;20159;-39
2023/12/03 03:32:55;;;;;;;8.25;6.80;;;;;;;16.05;46.51;102016.56;5028690;28;20072;-39
2023/12/03 03:35:21;;;;;;;8.32;6.25;;;;;;;16.08;46.98;102012.78;5027164;28;20053;-39
2023/12/03 03:37:49;;;;;;;7.43;5.90;;;;;;;16.11;46.80;102013.44;5024960;28;20080;-39
2023/12/03 03:40:15;;;;;;;9.85;6.57;;;;;;;16.15;46.94;102011.38;5022884;28;20050;-39
2023/12/03 03:42:42;;;;;;;7.38;6.32;;;;;;;16.18;46.25;102008.50;5026053;28;20045;-39
2023/12/03 03:45:09;;;;;;;7.20;6.22;;;;;;;16.23;46.81;102009.00;5029093;28;20349;-39
2023/12/03 03:47:36;;;;;;;8.70;6.45;;;;;;;16.26;45.73;102012.31;5023974;28;20053;-39
2023/12/03 03:50:04;;;;;;;7.53;5.97;;;;;;;16.28;46.08;102015.75;5026722;28;20226;-38
2023/12/03 03:52:31;;;;;;;8.32;6.38;;;;;;;16.32;46.70;102018.16;5029463;28;20065;-39
2023/12/03 03:54:58;;;;;;;6.57;5.10;;;;;;;16.31;46.54;102014.63;5031812;28;20077;-39
2023/12/03 03:57:24;;;;;;;6.90;5.50;;;;;;;16.31;46.62;102022.66;5033803;28;20425;-39
2023/12/03 03:59:51;;;;;;;8.02;5.93;;;;;;;16.27;46.37;102022.03;5029212;28;20076;-39
2023/12/03 04:02:18;;;;;;;7.22;5.53;;;;;;;16.26;46.11;102023.00;5034416;28;20107;-39
2023/12/03 04:04:44;;;;;;;7.45;5.30;;;;;;;16.26;46.46;102025.69;5031012;28;20103;-38
2023/12/03 04:07:11;;;;;;;6.43;5.40;;;;;;;16.23;46.26;102017.88;5029649;28;20256;-39
2023/12/03 04:09:38;;;;;;;7.75;5.80;;;;;;;16.20;46.32;102020.81;5029636;28;20049;-39
2023/12/03 04:12:05;;;;;;;6.53;5.10;;;;;;;16.19;46.33;102024.41;5029265;28;20045;-39
2023/12/03 04:14:31;;;;;;;6.55;5.25;;;;;;;16.18;46.92;102027.22;5032990;28;20044;-39
2023/12/03 04:16:58;;;;;;;5.60;4.78;;;;;;;16.15;46.84;102022.94;5025693;28;20053;-39
2023/12/03 04:19:25;;;;;;;6.85;5.43;;;;;;;16.13;46.79;102019.53;5026664;28;20138;-38
2023/12/03 04:21:52;;;;;;;5.20;3.95;;;;;;;16.12;46.54;102027.66;5030874;28;20417;-39
2023/12/03 04:24:19;;;;;;;6.25;4.93;;;;;;;16.10;46.08;102022.44;5029792;28;20421;-39
2023/12/03 04:26:46;;;;;;;5.90;4.95;;;;;;;16.09;46.38;102022.56;5033181;28;20077;-39
2023/12/03 04:29:12;;;;;;;5.53;4.40;;;;;;;16.07;47.36;102030.66;5029421;28;20053;-39
2023/12/03 04:31:39;;;;;;;5.82;4.43;;;;;;;16.04;46.66;102033.59;5026205;28;20136;-39
2023/12/03 04:34:06;;;;;;;5.95;4.50;;;;;;;16.03;46.24;102037.22;5027896;28;20076;-39
2023/12/03 04:36:32;;;;;;;5.03;4.00;;;;;;;16.00;46.38;102032.97;5024884;28;20369;-39
2023/12/03 04:38:59;;;;;;;6.47;4.80;;;;;;;15.99;46.88;102039.25;5025290;28;20057;-39
2023/12/03 04:41:36;;;;;;;6.93;5.05;;;;;;;15.97;46.87;102035.00;5023637;28;20103;-38
2023/12/03 04:44:04;;;;;;;5.88;4.70;;;;;;;15.95;46.58;102032.41;5030508;28;20041;-39
2023/12/03 04:46:31;;;;;;;5.35;4.85;;;;;;;15.93;47.09;102030.84;5025131;28;20438;-39
2023/12/03 04:48:58;;;;;;;6.65;4.78;;;;;;;15.94;47.38;102033.38;5029336;28;20052;-39
2023/12/03 04:51:24;;;;;;;5.63;4.45;;;;;;;15.96;47.06;102030.59;5026434;28;20132;-39
2023/12/03 04:53:51;;;;;;;6.10;5.07;;;;;;;16.00;46.91;102034.75;5033639;28;20049;-39
2023/12/03 04:56:18;;;;;;;6.80;4.60;;;;;;;16.04;46.57;102018.41;5034811;28;20453;-39
2023/12/03 04:58:44;;;;;;;6.05;4.13;;;;;;;16.10;46.59;102021.59;5031730;28;20052;-39
2023/12/03 05:01:12;;;;;;;5.38;4.63;;;;;;;16.15;46.92;102024.75;5027359;28;20057;-39
2023/12/03 05:03:43;;;;;;;6.05;5.03;;;;;;;16.19;46.18;102028.91;5022386;28;20050;-39
2023/12/03 05:06:10;;;;;;;5.82;4.53;;;;;;;16.23;46.33;102028.56;5025032;28;20057;-39
2023/12/03 05:08:37;;;;;;;6.63;4.85;;;;;;;16.26;46.28;102030.19;5024485;28;20049;-39
2023/12/03 05:11:04;;;;;;;4.72;4.20;;;;;;;16.29;46.28;102038.84;5031408;28;20136;-39
2023/12/03 05:13:34;;;;;;;4.80;4.00;;;;;;;16.31;46.47;102030.69;5026953;28;20146;-39
2023/12/03 05:16:02;;;;;;;6.18;4.88;;;;;;;16.29;46.63;102028.13;5028164;28;20053;-39
2023/12/03 05:18:29;;;;;;;6.68;4.90;;;;;;;16.28;45.78;102029.13;5027153;28;20049;-39
2023/12/03 05:20:57;;;;;;;5.15;4.22;;;;;;;16.26;46.48;102033.72;5026052;28;20140;-39
2023/12/03 05:23:24;;;;;;;5.95;4.43;;;;;;;16.24;46.48;102037.44;5029370;28;20080;-39
2023/12/03 05:25:52;;;;;;;4.82;3.92;;;;;;;16.22;45.80;102028.69;5031523;28;20360;-39
2023/12/03 05:28:18;;;;;;;5.28;4.13;;;;;;;16.21;46.35;102027.84;5027336;28;20077;-39
2023/12/03 05:30:45;;;;;;;6.10;4.75;;;;;;;16.18;46.72;102022.72;5028584;28;20053;-39
2023/12/03 05:33:12;;;;;;;5.50;4.53;;;;;;;16.17;46.51;102028.19;5025521;28;20072;-39
2023/12/03 05:35:39;;;;;;;6.43;4.60;;;;;;;16.14;46.83;102021.25;5022472;28;20053;-39
2023/12/03 05:38:05;;;;;;;6.72;4.40;;;;;;;16.11;46.51;102029.47;5027136;28;20056;-39
2023/12/03 05:40:32;;;;;;;5.82;4.00;;;;;;;16.09;46.20;102031.44;5029190;28;20064;-39
2023/12/03 05:43:00;;;;;;;6.00;4.80;;;;;;;16.08;46.62;102037.75;5029602;28;20045;-38
2023/12/03 05:45:27;;;;;;;5.15;3.80;;;;;;;16.05;46.38;102035.28;5026919;28;20049;-39
2023/12/03 05:47:54;;;;;;;6.03;4.43;;;;;;;16.03;46.32;102037.22;5023127;28;20050;-39
2023/12/03 05:50:21;;;;;;;5.57;4.38;;;;;;;16.00;46.67;102038.31;5023348;28;20140;-39
2023/12/03 05:52:48;;;;;;;5.60;4.13;;;;;;;15.97;46.15;102045.69;5028197;28;20349;-39
2023/12/03 05:55:16;;;;;;;6.03;4.60;;;;;;;15.96;46.84;102041.28;5024910;28;20046;-39
2023/12/03 05:57:43;;;;;;;5.50;4.05;;;;;;;15.94;46.92;102048.56;5026641;28;20255;-39
2023/12/03 06:00:10;;;;;;;5.50;4.30;;;;;;;15.92;46.11;102050.50;5026467;28;20053;-39
2023/12/03 06:02:37;;;;;;;5.45;3.88;;;;;;;15.93;45.75;102052.22;5028805;28;20052;-39
2023/12/03 06:05:04;;;;;;;6.13;4.68;;;;;;;15.94;46.32;102048.56;5029577;28;20054;-39
2023/12/03 06:07:31;;;;;;;5.28;4.13;;;;;;;15.96;45.77;102057.31;5030761;28;20453;-39
2023/12/03 06:09:58;;;;;;;5.82;4.68;;;;;;;15.99;46.84;102062.47;5030100;28;20136;-39
2023/12/03 06:12:25;;;;;;;6.70;4.10;;;;;;;16.02;45.60;102068.44;5024882;28;20046;-39
2023/12/03 06:14:51;;;;;;;6.40;4.43;;;;;;;16.06;46.32;102062.88;5029553;28;20187;-39
2023/12/03 06:17:18;;;;;;;5.13;4.22;;;;;;;16.11;45.97;102060.72;5029422;28;20049;-38
2023/12/03 06:19:45;;;;;;;6.30;4.57;;;;;;;16.15;46.14;102071.09;5030167;28;20144;-38
2023/12/03 06:22:11;;;;;;;4.72;4.00;;;;;;;16.18;46.29;102068.19;5027096;28;20042;-38
2023/12/03 06:24:38;;;;;;;5.35;4.15;;;;;;;16.20;45.80;102070.75;5027626;28;20096;-38
2023/12/03 06:27:05;;;;;;;7.45;4.70;;;;;;;16.21;45.59;102064.44;5032773;28;20049;-38
2023/12/03 06:29:32;;;;;;;5.47;4.20;;;;;;;16.20;45.97;102066.28;5029462;28;20049;-38
2023/12/03 06:31:58;;;;;;;7.18;4.93;;;;;;;16.19;45.99;102067.22;5031626;28;20049;-38
2023/12/03 06:34:25;;;;;;;6.30;4.65;;;;;;;16.18;45.62;102068.19;5030468;28;20038;-38
2023/12/03 06:36:52;;;;;;;6.05;4.45;;;;;;;16.15;46.15;102060.38;5030105;28;20449;-38
2023/12/03 06:39:18;;;;;;;6.22;4.57;;;;;;;16.13;46.44;102058.81;5022354;28;20053;-38
2023/12/03 06:41:45;;;;;;;6.35;4.30;;;;;;;16.11;45.55;102058.91;5027553;28;20052;-38
2023/12/03 06:44:12;;;;;;;6.03;4.53;;;;;;;16.10;46.50;102062.53;5026835;28;20044;-38
2023/12/03 06:46:41;;;;;;;7.50;5.18;;;;;;;16.09;46.25;102068.03;5029277;28;20089;-39
2023/12/03 06:49:10;;;;;;;7.30;4.60;;;;;;;16.07;45.37;102060.09;5027217;28;20072;-38
2023/12/03 06:51:37;;;;;;;6.65;5.00;;;;;;;16.06;45.24;102065.56;5025076;28;20429;-38
2023/12/03 06:54:03;;;;;;;6.65;4.97;;;;;;;16.04;45.23;102061.19;5027444;28;20053;-38
2023/12/03 06:56:30;;;;;;;6.70;4.90;;;;;;;16.03;46.04;102066.63;5027633;28;20049;-38
2023/12/03 06:58:57;;;;;;;8.35;5.53;;;;;;;16.03;45.45;102066.63;5027090;28;20057;-38
2023/12/03 07:01:23;;;;;;;7.40;5.45;;;;;;;16.01;45.60;102077.44;5028503;28;20144;-38
2023/12/03 07:03:50;;;;;;;7.65;5.63;;;;;;;16.01;45.96;102076.59;5026587;28;20057;-38
2023/12/03 07:06:17;;;;;;;7.63;5.30;;;;;;;15.99;45.50;102063.31;5029693;28;20283;-38
2023/12/03 07:08:44;;;;;;;7.65;5.57;;;;;;;16.01;45.97;102071.25;5025106;28;20463;-38
2023/12/03 07:11:13;;;;;;;7.22;5.15;;;;;;;16.02;46.02;102070.28;5028741;28;20060;-38
2023/12/03 07:13:40;;;;;;;7.95;5.70;;;;;;;16.04;45.53;102065.69;5028271;28;20087;-38
2023/12/03 07:16:09;;;;;;;7.90;5.22;;;;;;;16.10;44.68;102069.72;5027350;28;20077;-38
2023/12/03 07:18:36;;;;;;;7.88;5.47;;;;;;;16.15;45.74;102065.72;5031464;28;20107;-38
2023/12/03 07:21:03;;;;;;;7.45;5.32;;;;;;;16.24;44.68;102067.75;5025058;28;20041;-38
2023/12/03 07:23:29;;;;;;;8.18;5.93;;;;;;;16.33;44.81;102066.22;5026525;28;20413;-38
2023/12/03 07:25:56;;;;;;;8.73;5.38;;;;;;;16.43;44.51;102066.38;5026427;28;20119;-38
2023/12/03 07:28:22;;;;;;;8.65;5.85;;;;;;;16.52;45.05;102071.94;5029838;28;20087;-38
2023/12/03 07:30:49;;;;;;;8.13;6.13;;;;;;;16.62;44.58;102069.41;5033985;28;20432;-38
2023/12/03 07:33:16;;;;;;;10.13;5.82;;;;;;;16.71;44.04;102071.41;5031370;28;20431;-38
2023/12/03 07:35:42;;;;;;;6.80;5.05;;;;;;;16.78;44.81;102063.81;5029730;28;20040;-39
2023/12/03 07:38:09;;;;;;;8.88;5.63;;;;;;;16.87;44.70;102067.59;5031464;28;20396;-38
2023/12/03 07:40:36;;;;;;;9.95;6.43;;;;;;;16.94;44.12;102068.84;5032886;28;20560;-38
2023/12/03 07:43:02;;;;;;;10.27;6.45;;;;;;;17.01;43.66;102072.78;5036514;28;20044;-38
2023/12/03 07:45:29;;;;;;;8.30;5.93;;;;;;;17.07;43.44;102080.34;5033304;28;20053;-38
2023/12/03 07:47:56;;;;;;;10.13;6.63;;;;;;;17.13;43.94;102074.53;5031120;28;20044;-38
2023/12/03 07:50:22;;;;;;;9.40;5.68;;;;;;;17.18;43.46;102077.69;5028750;28;20045;-38
2023/12/03 07:52:49;;;;;;;7.88;5.13;;;;;;;17.23;43.48;102078.19;5037187;28;20107;-38
2023/12/03 07:55:16;;;;;;;8.20;5.78;;;;;;;17.28;43.27;102078.66;5030058;28;20304;-38
2023/12/03 07:57:42;;;;;;;8.45;6.13;;;;;;;17.35;43.69;102083.56;5026019;28;20480;-38
2023/12/03 08:00:09;;;;;;;11.20;6.97;;;;;;;17.39;43.56;102087.72;5031330;28;20181;-38
2023/12/03 08:02:36;;;;;;;9.20;6.53;;;;;;;17.44;43.88;102080.16;5028366;28;20091;-38
2023/12/03 08:05:04;;;;;;;11.57;7.32;;;;;;;17.46;43.68;102084.44;5025718;28;20045;-38
2023/12/03 08:07:31;;;;;;;11.98;7.72;;;;;;;17.50;43.63;102085.91;5029149;28;20127;-38
2023/12/03 08:09:58;;;;;;;14.20;8.50;;;;;;;17.55;43.72;102085.56;5031096;28;20046;-38
2023/12/03 08:12:24;;;;;;;13.60;8.48;;;;;;;17.58;43.71;102089.84;5031667;28;20041;-37
2023/12/03 08:14:51;;;;;;;12.13;7.70;;;;;;;17.62;43.86;102089.47;5029278;28;20140;-37
2023/12/03 08:17:18;;;;;;;15.13;9.30;;;;;;;17.60;43.65;102088.72;5027735;28;20068;-37
2023/12/03 08:19:45;;;;;;;13.82;8.85;;;;;;;17.61;43.27;102086.88;5026670;28;20724;-37
2023/12/03 08:22:14;;;;;;;12.77;8.57;;;;;;;17.57;43.27;102083.63;5026993;28;20061;-37
2023/12/03 08:24:40;;;;;;;17.10;9.90;;;;;;;17.54;43.48;102091.91;5028627;28;20046;-37
2023/12/03 08:27:07;;;;;;;14.82;9.85;;;;;;;17.47;43.77;102086.16;5027749;28;20132;-37
2023/12/03 08:29:34;;;;;;;15.93;10.43;;;;;;;17.42;43.55;102092.84;5025830;28;20096;-37
2023/12/03 08:32:00;;;;;;;15.68;9.55;;;;;;;17.35;43.82;102092.47;5024200;28;20045;-37
2023/12/03 08:34:28;;;;;;;15.75;10.07;;;;;;;17.25;43.42;102095.00;5028625;28;20132;-38
2023/12/03 08:36:55;;;;;;;16.45;10.63;;;;;;;17.18;43.30;102103.63;5027049;28;20072;-38
2023/12/03 08:39:22;;;;;;;16.90;10.15;;;;;;;17.10;43.71;102106.88;5031488;28;20077;-38
2023/12/03 08:41:49;;;;;;;15.13;10.35;;;;;;;17.02;43.77;102104.78;5028518;28;20140;-38
2023/12/03 08:44:15;;;;;;;15.02;10.13;;;;;;;16.95;43.82;102103.53;5030370;28;20115;-38
2023/12/03 08:46:42;;;;;;;18.58;11.07;;;;;;;16.89;44.33;102105.84;5028200;28;20053;-39
2023/12/03 08:49:09;;;;;;;15.90;10.48;;;;;;;16.84;44.09;102110.66;5026565;28;20085;-38
2023/12/03 08:51:38;;;;;;;16.42;10.60;;;;;;;16.80;44.25;102115.41;5027057;28;20050;-38
2023/12/03 08:54:04;;;;;;;18.15;10.70;;;;;;;16.74;44.16;102116.72;5027841;28;20080;-38
2023/12/03 08:56:31;;;;;;;15.82;10.07;;;;;;;16.69;44.94;102118.84;5026946;28;20449;-38
2023/12/03 08:58:58;;;;;;;19.23;11.40;;;;;;;16.65;44.85;102120.06;5028262;28;20045;-38
2023/12/03 09:01:24;;;;;;;15.63;10.45;;;;;;;16.61;44.31;102112.38;5027254;28;20136;-38
2023/12/03 09:03:51;;;;;;;17.08;10.77;;;;;;;16.58;44.83;102109.91;5030677;28;20051;-38
2023/12/03 09:06:17;;;;;;;17.15;11.18;;;;;;;16.56;44.67;102103.81;5026303;28;20045;-38
2023/12/03 09:08:44;;;;;;;17.15;11.35;;;;;;;16.52;44.27;102104.06;5026143;28;20069;-38
2023/12/03 09:11:11;;;;;;;17.10;11.02;;;;;;;16.50;44.78;102102.44;5025377;28;20136;-38
2023/12/03 09:13:37;;;;;;;17.17;12.25;;;;;;;16.48;45.13;102099.00;5025677;28;20052;-38
2023/12/03 09:16:05;;;;;;;17.75;12.32;;;;;;;16.47;45.03;102097.31;5028725;28;20041;-38
2023/12/03 09:18:34;;;;;;;21.05;13.15;;;;;;;16.44;45.59;102100.19;5041036;28;20049;-38
2023/12/03 09:21:01;;;;;;;21.73;13.38;;;;;;;16.43;45.32;102103.84;5029993;28;20140;-38
2023/12/03 09:23:28;;;;;;;22.88;14.30;;;;;;;16.43;44.42;102104.72;5028903;28;20049;-38
2023/12/03 09:25:54;;;;;;;25.33;14.98;;;;;;;16.42;45.07;102099.47;5026310;28;20125;-39
2023/12/03 09:28:21;;;;;;;26.65;16.17;;;;;;;16.40;44.22;102101.41;5030464;28;20058;-38
2023/12/03 09:30:48;;;;;;;24.08;15.68;;;;;;;16.39;44.30;102105.91;5023442;28;20793;-38
2023/12/03 09:33:14;;;;;;;25.55;15.65;;;;;;;16.38;44.62;102092.66;5025245;28;20453;-38
2023/12/03 09:35:41;;;;;;;25.40;16.15;;;;;;;16.35;44.15;102098.22;5028324;28;20056;-38
2023/12/03 09:38:07;;;;;;;27.02;16.23;;;;;;;16.35;43.33;102095.53;5028429;28;20096;-39
2023/12/03 09:40:34;;;;;;;24.40;15.85;;;;;;;16.35;44.09;102090.19;5024353;28;20099;-38
2023/12/03 09:43:04;;;;;;;26.15;16.00;;;;;;;16.33;44.80;102086.78;5026997;28;20049;-38
2023/12/03 09:45:31;;;;;;;23.85;14.80;;;;;;;16.34;44.16;102075.09;5029327;28;20060;-38
2023/12/03 09:48:02;;;;;;;26.38;15.70;;;;;;;16.35;44.69;102084.84;5028405;28;20055;-38
2023/12/03 09:50:34;;;;;;;26.48;15.57;;;;;;;16.38;44.38;102085.47;5027687;28;20045;-38
2023/12/03 09:53:02;;;;;;;27.13;16.98;;;;;;;16.41;44.80;102082.56;5021073;28;20099;-38
2023/12/03 09:55:31;;;;;;;26.27;16.55;;;;;;;16.44;44.37;102085.03;5024906;28;20132;-38
2023/12/03 09:57:59;;;;;;;26.30;17.08;;;;;;;16.46;43.69;102088.44;5026707;28;20046;-38
2023/12/03 10:00:28;;;;;;;29.08;17.95;;;;;;;16.50;44.79;102091.75;5025492;28;20056;-38
2023/12/03 10:02:55;;;;;;;25.35;16.80;;;;;;;16.52;45.30;102088.00;5024784;28;20045;-38
2023/12/03 10:05:22;;;;;;;25.88;16.67;;;;;;;16.56;45.18;102085.06;5026050;28;20104;-38
2023/12/03 10:07:50;;;;;;;29.40;17.83;;;;;;;16.59;44.95;102087.53;5026282;28;20049;-38
2023/12/03 10:10:19;;;;;;;27.92;17.15;;;;;;;16.61;45.42;102078.44;5040854;28;20085;-38
2023/12/03 10:12:49;;;;;;;29.58;16.15;;;;;;;16.63;44.87;102079.16;5025507;28;20120;-38
2023/12/03 10:15:16;;;;;;;25.17;16.25;;;;;;;16.65;44.52;102082.59;5027646;28;20049;-38
2023/12/03 10:17:43;;;;;;;24.98;15.82;;;;;;;16.66;43.86;102078.94;5028570;28;20053;-38
2023/12/03 10:20:27;;;;;;;26.40;16.63;;;;;;;16.66;43.37;102084.28;5025914;28;20048;-38
2023/12/03 10:23:00;;;;;;;25.08;16.17;;;;;;;16.67;42.59;102077.09;5025162;28;20101;-39
2023/12/03 10:25:34;;;;;;;24.33;16.33;;;;;;;16.68;42.66;102078.81;5020443;28;20329;-38
2023/12/03 10:28:06;;;;;;;25.23;16.50;;;;;;;16.67;42.25;102075.28;5019397;28;20103;-39
2023/12/03 10:30:33;;;;;;;26.10;16.25;;;;;;;16.68;41.77;102078.81;5023122;28;20373;-39
2023/12/03 10:33:00;;;;;;;23.20;15.38;;;;;;;16.65;40.99;102079.91;5020679;28;20053;-39
2023/12/03 10:35:33;;;;;;;25.25;16.02;;;;;;;16.60;41.19;102074.00;5024943;28;20156;-39
2023/12/03 10:38:01;;;;;;;23.77;15.98;;;;;;;16.56;41.60;102072.53;5021685;28;20381;-39
2023/12/03 10:40:32;;;;;;;25.05;16.23;;;;;;;16.49;41.11;102077.50;5024402;28;20057;-39
2023/12/03 10:43:01;;;;;;;23.20;15.50;;;;;;;16.44;41.47;102074.31;5023243;28;20052;-39
2023/12/03 10:45:28;;;;;;;26.52;16.33;;;;;;;16.38;42.40;102071.25;5026387;28;20053;-39
2023/12/03 10:47:59;;;;;;;28.60;16.67;;;;;;;16.31;41.68;102060.13;5022956;28;20357;-39
2023/12/03 10:50:28;;;;;;;26.25;15.20;;;;;;;16.26;42.27;102057.78;5018109;28;20054;-39
2023/12/03 10:52:58;;;;;;;24.60;15.43;;;;;;;16.23;43.56;102049.97;5015642;28;20065;-39
2023/12/03 10:55:25;;;;;;;22.50;15.05;;;;;;;16.22;43.18;102058.13;5021180;28;20129;-39
2023/12/03 10:58:05;;;;;;;24.20;15.13;;;;;;;16.19;43.66;102058.34;5018032;28;20068;-42
2023/12/03 11:01:05;;;;;;;22.23;14.90;;;;;;;16.16;43.67;102054.09;5023657;28;20052;-39
2023/12/03 11:04:11;;;;;;;24.42;14.93;;;;;;;16.15;43.68;102048.84;5021701;28;20053;-39
2023/12/03 11:06:40;;;;;;;21.70;13.88;;;;;;;16.16;43.14;102047.84;4984438;28;20074;-39
2023/12/03 11:09:08;;;;;;;22.00;14.05;;;;;;;16.12;43.89;102035.69;5016603;28;20045;-39
2023/12/03 11:11:38;;;;;;;22.40;14.20;;;;;;;16.06;44.76;102031.66;5019644;28;20046;-39
2023/12/03 11:14:05;;;;;;;27.83;14.23;;;;;;;16.02;43.88;102027.47;5023858;28;20114;-39
2023/12/03 11:16:42;;;;;;;23.60;13.63;;;;;;;15.95;44.14;102021.72;5019875;28;20422;-39
2023/12/03 11:19:16;;;;;;;23.65;14.00;;;;;;;15.91;44.13;102019.38;5024366;28;20046;-39
2023/12/03 11:22:20;;;;;;;20.63;13.50;;;;;;;15.84;45.07;102007.41;5024072;28;20053;-39